createdAt,value
2018-02-13T00:01:46.703Z,15.23
2018-02-13T00:04:14.200Z,13.55
2018-02-13T00:06:42.574Z,15.45
2018-02-13T00:09:10.955Z,13.80
2018-02-13T00:11:39.299Z,17.80
2018-02-13T00:14:06.798Z,13.90
2018-02-13T00:16:35.145Z,13.05
2018-02-13T00:19:02.643Z,15.00
2018-02-13T00:21:30.288Z,14.87
2018-02-13T00:23:58.551Z,12.90
2018-02-13T00:26:26.042Z,13.15
2018-02-13T00:28:53.586Z,15.73
2018-02-13T00:31:21.846Z,13.45
2018-02-13T00:33:49.355Z,13.88
2018-02-13T00:36:16.863Z,15.35
2018-02-13T00:38:44.354Z,14.02
2018-02-13T00:41:11.858Z,13.40
2018-02-13T00:43:39.366Z,13.88
2018-02-13T00:46:06.854Z,14.63
2018-02-13T00:48:34.362Z,12.65
2018-02-13T00:51:02.852Z,12.15
2018-02-13T00:53:31.333Z,12.65
2018-02-13T00:55:59.590Z,13.05
2018-02-13T00:58:27.091Z,14.07
2018-02-13T01:00:54.582Z,13.60
2018-02-13T01:03:22.070Z,11.10
2018-02-13T01:05:50.342Z,12.68
2018-02-13T01:08:17.840Z,14.18
2018-02-13T01:10:45.338Z,12.45
2018-02-13T01:13:12.843Z,13.18
2018-02-13T01:15:40.354Z,15.65
2018-02-13T01:18:07.862Z,14.60
2018-02-13T01:20:35.357Z,15.65
2018-02-13T01:23:02.854Z,15.00
2018-02-13T01:25:30.345Z,13.60
2018-02-13T01:27:57.884Z,14.35
2018-02-13T01:30:26.363Z,15.13
2018-02-13T01:32:54.647Z,15.52
2018-02-13T01:35:22.902Z,15.02
2018-02-13T01:37:50.390Z,16.62
2018-02-13T01:40:17.910Z,15.85
2018-02-13T01:42:45.406Z,16.17
2018-02-13T01:45:12.946Z,15.38
2018-02-13T01:47:41.211Z,17.02
2018-02-13T01:50:21.884Z,16.77
2018-02-13T01:52:50.150Z,15.73
2018-02-13T01:55:17.640Z,17.73
2018-02-13T01:57:45.142Z,20.98
2018-02-13T02:00:12.640Z,18.75
2018-02-13T02:02:40.895Z,15.43
2018-02-13T02:05:08.388Z,15.98
2018-02-13T02:07:35.882Z,16.60
2018-02-13T02:10:03.381Z,17.75
2018-02-13T02:12:30.891Z,17.37
2018-02-13T02:14:58.398Z,16.60
2018-02-13T02:17:25.930Z,17.35
2018-02-13T02:19:53.426Z,17.50
2018-02-13T02:22:21.696Z,19.40
2018-02-13T02:24:49.962Z,16.08
2018-02-13T02:27:17.637Z,17.37
2018-02-13T02:29:46.020Z,18.08
2018-02-13T02:32:14.494Z,19.27
2018-02-13T02:34:42.755Z,17.90
2018-02-13T02:37:10.262Z,20.12
2018-02-13T02:39:37.750Z,18.80
2018-02-13T02:42:05.256Z,21.35
2018-02-13T02:44:33.533Z,18.65
2018-02-13T02:47:01.790Z,19.92
2018-02-13T02:49:30.175Z,20.62
2018-02-13T02:51:58.554Z,24.77
2018-02-13T02:54:26.818Z,21.35
2018-02-13T02:56:55.080Z,20.23
2018-02-13T02:59:22.773Z,22.45
2018-02-13T03:01:51.035Z,20.35
2018-02-13T03:04:18.722Z,22.58
2018-02-13T03:06:46.219Z,18.65
2018-02-13T03:09:13.931Z,23.10
2018-02-13T03:11:42.191Z,21.15
2018-02-13T03:14:09.876Z,21.90
2018-02-13T03:16:38.135Z,20.67
2018-02-13T03:19:05.633Z,22.58
2018-02-13T03:21:33.123Z,20.88
2018-02-13T03:24:00.626Z,21.05
2018-02-13T03:26:28.893Z,19.67
2018-02-13T03:28:57.375Z,19.05
2018-02-13T03:31:25.635Z,17.95
2018-02-13T03:33:53.153Z,20.58
2018-02-13T03:36:20.642Z,22.95
2018-02-13T03:38:48.130Z,19.80
2018-02-13T03:41:16.398Z,22.92
2018-02-13T03:43:44.654Z,18.27
2018-02-13T03:46:12.151Z,18.12
2018-02-13T03:48:40.418Z,18.95
2018-02-13T03:51:09.286Z,21.27
2018-02-13T03:53:36.774Z,22.50
2018-02-13T03:56:04.283Z,19.87
2018-02-13T03:58:31.778Z,20.92
2018-02-13T04:01:00.040Z,22.10
2018-02-13T04:03:27.546Z,21.65
2018-02-13T04:05:55.175Z,21.23
2018-02-13T04:08:23.434Z,24.08
2018-02-13T04:10:50.924Z,22.70
2018-02-13T04:13:18.439Z,23.17
2018-02-13T04:15:45.938Z,23.60
2018-02-13T04:18:13.454Z,21.10
2018-02-13T04:20:41.060Z,20.52
2018-02-13T04:23:08.574Z,24.73
2018-02-13T04:25:36.067Z,23.48
2018-02-13T04:28:04.330Z,27.42
2018-02-13T04:30:32.711Z,23.02
2018-02-13T04:33:00.970Z,25.58
2018-02-13T04:35:28.459Z,23.23
2018-02-13T04:37:55.971Z,27.73
2018-02-13T04:40:23.461Z,22.55
2018-02-13T04:42:51.717Z,27.23
2018-02-13T04:45:19.210Z,20.95
2018-02-13T04:47:46.709Z,28.45
2018-02-13T04:50:14.198Z,23.87
2018-02-13T04:52:41.706Z,27.55
2018-02-13T04:55:09.199Z,29.95
2018-02-13T04:57:36.891Z,26.50
2018-02-13T05:00:05.309Z,27.10
2018-02-13T05:02:32.938Z,24.05
2018-02-13T05:05:01.202Z,29.80
2018-02-13T05:07:29.469Z,25.00
2018-02-13T05:09:56.972Z,24.87
2018-02-13T05:12:24.474Z,29.35
2018-02-13T05:14:51.968Z,31.65
2018-02-13T05:17:20.238Z,29.23
2018-02-13T05:19:48.498Z,37.65
2018-02-13T05:22:16.007Z,23.65
2018-02-13T05:24:43.634Z,25.55
2018-02-13T05:27:11.894Z,22.62
2018-02-13T05:29:39.388Z,26.15
2018-02-13T05:32:06.884Z,24.75
2018-02-13T05:34:34.374Z,25.80
2018-02-13T05:37:02.638Z,32.50
2018-02-13T05:39:30.334Z,25.10
2018-02-13T05:41:57.834Z,24.98
2018-02-13T05:44:25.327Z,23.12
2018-02-13T05:46:52.830Z,23.15
2018-02-13T05:49:20.331Z,23.55
2018-02-13T05:51:47.840Z,54.90
2018-02-13T05:54:15.340Z,61.40
2018-02-13T05:56:42.838Z,65.70
2018-02-13T05:59:11.103Z,71.62
2018-02-13T06:01:39.363Z,64.15
2018-02-13T06:04:06.852Z,59.65
2018-02-13T06:06:34.352Z,60.65
2018-02-13T06:09:01.850Z,62.78
2018-02-13T06:11:30.149Z,54.38
2018-02-13T06:13:57.642Z,54.45
2018-02-13T06:16:25.134Z,21.73
2018-02-13T06:18:52.633Z,26.90
2018-02-13T06:21:20.133Z,23.70
2018-02-13T06:23:47.629Z,29.55
2018-02-13T06:26:15.890Z,26.15
2018-02-13T06:28:44.152Z,29.85
2018-02-13T06:31:11.642Z,28.20
2018-02-13T06:33:39.130Z,25.30
2018-02-13T06:36:06.638Z,23.80
2018-02-13T06:38:34.903Z,24.10
2018-02-13T06:41:02.394Z,25.00
2018-02-13T06:43:29.889Z,29.12
2018-02-13T06:45:57.390Z,29.75
2018-02-13T06:48:25.666Z,29.60
2018-02-13T06:50:53.934Z,24.98
2018-02-13T06:53:21.432Z,26.52
2018-02-13T06:55:48.990Z,25.40
2018-02-13T06:58:16.494Z,24.42
2018-02-13T07:00:43.990Z,27.73
2018-02-13T07:03:11.495Z,25.73
2018-02-13T07:05:38.987Z,31.35
2018-02-13T07:08:07.246Z,25.75
2018-02-13T07:10:36.247Z,26.05
2018-02-13T07:13:03.745Z,26.30
2018-02-13T07:15:31.251Z,28.50
2018-02-13T07:17:58.742Z,33.65
2018-02-13T07:20:27.002Z,36.00
2018-02-13T07:22:54.495Z,27.02
2018-02-13T07:25:22.004Z,28.27
2018-02-13T07:27:49.501Z,26.48
2018-02-13T07:30:16.994Z,26.45
2018-02-13T07:32:44.498Z,29.90
2018-02-13T07:35:12.764Z,28.75
2018-02-13T07:37:40.254Z,24.90
2018-02-13T07:40:07.754Z,28.85
2018-02-13T07:42:35.475Z,26.92
2018-02-13T07:45:03.738Z,22.00
2018-02-13T07:47:31.998Z,24.05
2018-02-13T07:49:59.675Z,21.87
2018-02-13T07:52:27.942Z,25.83
2018-02-13T07:54:55.614Z,25.70
2018-02-13T07:57:23.875Z,25.10
2018-02-13T07:59:51.382Z,26.08
2018-02-13T08:02:18.913Z,22.65
2018-02-13T08:04:46.486Z,22.00
2018-02-13T08:07:13.991Z,24.83
2018-02-13T08:09:41.502Z,25.12
2018-02-13T08:12:09.149Z,27.35
2018-02-13T08:14:37.399Z,24.87
2018-02-13T08:17:04.913Z,24.55
2018-02-13T08:19:32.421Z,24.02
2018-02-13T08:21:59.926Z,20.70
2018-02-13T08:24:27.434Z,23.55
2018-02-13T08:26:54.939Z,18.95
2018-02-13T08:29:22.551Z,21.70
2018-02-13T08:31:50.254Z,20.33
2018-02-13T08:34:17.961Z,24.33
2018-02-13T08:36:45.879Z,21.83
2018-02-13T08:39:14.484Z,17.58
2018-02-13T08:41:42.371Z,18.12
2018-02-13T08:44:10.219Z,17.48
2018-02-13T08:46:38.058Z,17.12
2018-02-13T08:49:06.458Z,18.85
2018-02-13T08:51:34.106Z,15.85
2018-02-13T08:54:02.475Z,15.95
2018-02-13T08:56:30.817Z,12.52
2018-02-13T08:58:58.452Z,14.30
2018-02-13T09:01:26.310Z,13.45
2018-02-13T09:03:54.186Z,13.80
2018-02-13T09:06:21.843Z,13.00
2018-02-13T09:08:49.641Z,14.18
2018-02-13T09:11:17.556Z,13.13
2018-02-13T09:13:46.236Z,12.63
2018-02-13T09:16:14.937Z,13.15
2018-02-13T09:18:42.697Z,12.00
2018-02-13T09:21:10.473Z,14.38
2018-02-13T09:23:38.072Z,13.57
2018-02-13T09:26:05.615Z,12.13
2018-02-13T09:28:33.161Z,11.52
2018-02-13T09:31:00.734Z,13.27
2018-02-13T09:33:28.497Z,14.55
2018-02-13T09:35:56.119Z,12.18
2018-02-13T09:38:23.663Z,12.77
2018-02-13T09:40:52.115Z,12.93
2018-02-13T09:43:19.754Z,13.50
2018-02-13T09:45:47.353Z,15.40
2018-02-13T09:48:15.695Z,12.70
2018-02-13T09:50:43.217Z,13.65
2018-02-13T09:53:10.779Z,12.77
2018-02-13T09:55:38.528Z,12.75
2018-02-13T09:58:06.279Z,12.07
2018-02-13T10:00:34.558Z,11.50
2018-02-13T10:03:02.895Z,12.43
2018-02-13T10:05:30.386Z,11.57
2018-02-13T10:07:57.888Z,12.05
2018-02-13T10:10:25.387Z,14.82
2018-02-13T10:12:52.891Z,10.85
2018-02-13T10:15:20.394Z,11.82
2018-02-13T10:17:47.937Z,14.75
2018-02-13T10:20:16.155Z,11.95
2018-02-13T10:22:43.657Z,11.90
2018-02-13T10:25:11.283Z,16.10
2018-02-13T10:27:39.581Z,20.55
2018-02-13T10:30:07.079Z,12.05
2018-02-13T10:32:34.790Z,13.00
2018-02-13T10:35:03.267Z,13.38
2018-02-13T10:37:31.544Z,11.27
2018-02-13T10:39:59.810Z,11.70
2018-02-13T10:42:28.087Z,15.13
2018-02-13T10:44:56.350Z,12.73
2018-02-13T10:47:23.846Z,13.43
2018-02-13T10:49:51.493Z,12.25
2018-02-13T10:52:19.006Z,13.65
2018-02-13T10:54:46.711Z,12.75
2018-02-13T10:57:15.090Z,12.57
2018-02-13T10:59:43.350Z,12.75
2018-02-13T11:02:17.266Z,15.68
2018-02-13T11:04:45.654Z,12.32
2018-02-13T11:07:14.035Z,12.00
2018-02-13T11:09:42.305Z,13.35
2018-02-13T11:12:10.570Z,13.88
2018-02-13T11:14:38.055Z,13.07
2018-02-13T11:17:05.558Z,11.82
2018-02-13T11:19:33.269Z,10.70
2018-02-13T11:22:01.534Z,11.50
2018-02-13T11:24:29.802Z,12.18
2018-02-13T11:26:57.406Z,11.90
2018-02-13T11:29:24.895Z,8.70
2018-02-13T11:31:52.391Z,11.70
2018-02-13T11:34:20.643Z,11.25
2018-02-13T11:36:48.139Z,11.93
2018-02-13T11:39:16.406Z,11.35
2018-02-13T11:41:44.671Z,10.77
2018-02-13T11:44:12.951Z,9.70
2018-02-13T11:46:41.335Z,10.43
2018-02-13T11:49:09.588Z,11.12
2018-02-13T11:51:37.275Z,12.88
2018-02-13T11:54:05.530Z,9.70
2018-02-13T11:56:33.210Z,10.57
2018-02-13T11:59:01.483Z,10.45
2018-02-13T12:01:29.742Z,11.40
2018-02-13T12:03:57.251Z,12.43
2018-02-13T12:06:24.738Z,10.35
2018-02-13T12:08:52.444Z,10.45
2018-02-13T12:11:20.694Z,12.32
2018-02-13T12:13:48.182Z,10.93
2018-02-13T12:16:16.450Z,12.77
2018-02-13T12:18:44.723Z,12.18
2018-02-13T12:21:13.012Z,12.50
2018-02-13T12:23:41.270Z,14.73
2018-02-13T12:26:09.530Z,12.75
2018-02-13T12:28:37.022Z,15.80
2018-02-13T12:31:05.294Z,16.33
2018-02-13T12:33:33.596Z,16.12
2018-02-13T12:36:01.091Z,18.08
2018-02-13T12:38:28.588Z,19.40
2018-02-13T12:40:56.846Z,15.00
2018-02-13T12:43:25.109Z,18.62
2018-02-13T12:45:52.799Z,14.25
2018-02-13T12:48:20.318Z,15.52
2018-02-13T12:50:47.828Z,17.98
2018-02-13T12:53:15.319Z,12.27
2018-02-13T12:55:42.828Z,11.93
2018-02-13T12:58:11.093Z,14.87
2018-02-13T13:00:38.594Z,13.40
2018-02-13T13:03:06.089Z,13.43
2018-02-13T13:05:33.719Z,13.07
2018-02-13T13:08:01.270Z,13.07
2018-02-13T13:10:28.818Z,13.62
2018-02-13T13:12:56.375Z,13.85
2018-02-13T13:15:24.675Z,11.65
2018-02-13T13:17:52.205Z,12.88
2018-02-13T13:20:20.562Z,14.25
2018-02-13T13:22:48.878Z,16.98
2018-02-13T13:25:16.414Z,12.40
2018-02-13T13:27:44.971Z,16.37
2018-02-13T13:30:12.489Z,14.13
2018-02-13T13:32:40.026Z,13.23
2018-02-13T13:35:07.554Z,14.38
2018-02-13T13:37:35.869Z,14.55
2018-02-13T13:40:03.426Z,17.65
2018-02-13T13:42:31.035Z,17.65
2018-02-13T13:44:58.609Z,18.23
2018-02-13T13:47:26.147Z,14.93
2018-02-13T13:49:54.026Z,17.62
2018-02-13T13:52:21.562Z,17.62
2018-02-13T13:54:49.074Z,13.60
2018-02-13T13:57:17.389Z,15.75
2018-02-13T13:59:44.920Z,14.35
2018-02-13T14:02:12.455Z,14.00
2018-02-13T14:04:40.026Z,15.10
2018-02-13T14:07:08.350Z,16.20
2018-02-13T14:09:36.203Z,15.10
2018-02-13T14:12:03.827Z,18.15
2018-02-13T14:14:32.098Z,15.57
2018-02-13T14:16:59.664Z,18.67
2018-02-13T14:19:27.138Z,15.27
2018-02-13T14:21:54.653Z,19.52
2018-02-13T14:24:22.159Z,16.75
2018-02-13T14:26:49.812Z,16.92
2018-02-13T14:29:17.503Z,18.20
2018-02-13T14:31:45.041Z,16.55
2018-02-13T14:34:13.861Z,16.98
2018-02-13T14:36:41.475Z,15.80
2018-02-13T14:39:09.968Z,20.00
2018-02-13T14:41:38.223Z,16.90
2018-02-13T14:44:05.719Z,19.40
2018-02-13T14:46:33.230Z,17.37
2018-02-13T14:49:00.746Z,18.85
2018-02-13T14:51:28.295Z,20.17
2018-02-13T14:53:55.927Z,17.65
2018-02-13T14:56:24.412Z,21.45
2018-02-13T14:58:52.682Z,20.12
2018-02-13T15:01:20.946Z,17.60
2018-02-13T15:03:48.461Z,22.33
2018-02-13T15:06:15.966Z,20.17
2018-02-13T15:08:43.459Z,17.37
2018-02-13T15:11:10.963Z,23.12
2018-02-13T15:13:38.572Z,21.75
2018-02-13T15:16:06.074Z,23.80
2018-02-13T15:18:36.390Z,19.12
2018-02-13T15:21:03.947Z,23.75
2018-02-13T15:23:31.440Z,21.95
2018-02-13T15:25:58.939Z,21.95
2018-02-13T15:28:26.446Z,19.65
2018-02-13T15:30:53.939Z,22.27
2018-02-13T15:33:21.548Z,20.60
2018-02-13T15:35:49.040Z,23.35
2018-02-13T15:38:17.307Z,25.98
2018-02-13T15:40:44.811Z,24.30
2018-02-13T15:43:12.298Z,22.77
2018-02-13T15:45:40.007Z,25.75
2018-02-13T15:48:08.274Z,20.33
2018-02-13T15:50:36.531Z,21.83
2018-02-13T15:53:04.023Z,21.05
2018-02-13T15:55:31.514Z,20.98
2018-02-13T15:57:59.018Z,22.75
2018-02-13T16:00:26.515Z,20.42
2018-02-13T16:02:54.008Z,21.87
2018-02-13T16:05:21.498Z,20.33
2018-02-13T16:07:49.909Z,17.60
2018-02-13T16:10:17.423Z,19.48
2018-02-13T16:12:44.920Z,21.70
2018-02-13T16:15:12.463Z,20.40
2018-02-13T16:17:40.722Z,15.65
2018-02-13T16:20:09.000Z,18.60
2018-02-13T16:22:37.271Z,20.88
2018-02-13T16:25:04.772Z,25.27
2018-02-13T16:27:32.267Z,26.40
2018-02-13T16:29:59.762Z,29.17
2018-02-13T16:32:27.286Z,27.58
2018-02-13T16:34:54.782Z,24.70
2018-02-13T16:37:23.039Z,25.88
2018-02-13T16:39:50.537Z,23.38
2018-02-13T16:42:18.030Z,23.90
2018-02-13T16:44:45.534Z,28.38
2018-02-13T16:47:13.807Z,24.45
2018-02-13T16:49:42.291Z,22.52
2018-02-13T16:52:10.546Z,21.42
2018-02-13T16:54:38.040Z,23.12
2018-02-13T16:57:05.543Z,26.80
2018-02-13T16:59:33.044Z,24.15
2018-02-13T17:02:01.310Z,27.83
2018-02-13T17:04:29.616Z,25.73
2018-02-13T17:06:57.110Z,26.00
2018-02-13T17:09:24.618Z,29.10
2018-02-13T17:11:52.119Z,22.87
2018-02-13T17:14:19.606Z,26.10
2018-02-13T17:16:47.880Z,44.35
2018-02-13T17:19:15.382Z,87.65
2018-02-13T17:21:42.878Z,56.30
2018-02-13T17:24:10.578Z,56.95
2018-02-13T17:26:38.834Z,37.65
2018-02-13T17:29:06.331Z,39.10
2018-02-13T17:31:33.838Z,31.33
2018-02-13T17:34:02.116Z,29.80
2018-02-13T17:36:29.610Z,30.05
2018-02-13T17:38:57.171Z,38.35
2018-02-13T17:41:24.682Z,38.00
2018-02-13T17:43:52.190Z,36.67
2018-02-13T17:46:19.692Z,40.38
2018-02-13T17:48:47.182Z,41.90
2018-02-13T17:51:15.464Z,42.83
2018-02-13T17:53:43.734Z,36.28
2018-02-13T17:56:11.239Z,34.58
2018-02-13T17:58:38.763Z,38.60
2018-02-13T18:01:07.047Z,30.85
2018-02-13T18:03:35.303Z,22.95
2018-02-13T18:06:02.988Z,28.50
2018-02-13T18:08:30.507Z,28.58
2018-02-13T18:10:58.006Z,25.80
2018-02-13T18:13:26.278Z,27.35
2018-02-13T18:15:53.787Z,34.13
2018-02-13T18:18:21.288Z,52.90
2018-02-13T18:20:49.547Z,41.50
2018-02-13T18:23:17.807Z,56.78
2018-02-13T18:25:45.315Z,49.85
2018-02-13T18:28:12.824Z,39.80
2018-02-13T18:30:40.326Z,36.35
2018-02-13T18:33:07.883Z,28.92
2018-02-13T18:35:35.406Z,33.47
2018-02-13T18:38:02.895Z,27.85
2018-02-13T18:40:31.158Z,32.97
2018-02-13T18:42:59.431Z,28.67
2018-02-13T18:45:27.690Z,28.67
2018-02-13T18:47:55.195Z,32.55
2018-02-13T18:50:22.699Z,27.60
2018-02-13T18:55:18.458Z,30.30
2018-02-13T18:57:45.963Z,28.52
2018-02-13T19:00:13.453Z,32.85
2018-02-13T19:02:40.958Z,32.25
2018-02-13T19:05:08.604Z,32.58
2018-02-13T19:07:36.874Z,40.80
2018-02-13T19:10:05.145Z,39.70
2018-02-13T19:12:32.745Z,36.03
2018-02-13T19:15:00.383Z,34.38
2018-02-13T19:17:28.639Z,31.25
2018-02-13T19:19:56.142Z,33.58
2018-02-13T19:22:23.770Z,30.35
2018-02-13T19:24:52.167Z,30.92
2018-02-13T19:27:19.826Z,30.40
2018-02-13T19:29:47.343Z,30.95
2018-02-13T19:32:14.861Z,33.13
2018-02-13T19:34:42.358Z,31.48
2018-02-13T19:37:09.878Z,33.35
2018-02-13T19:39:37.386Z,29.92
2018-02-13T19:42:04.995Z,27.98
2018-02-13T19:44:32.502Z,28.35
2018-02-13T19:47:00.017Z,32.78
2018-02-13T19:49:27.526Z,36.08
2018-02-13T19:51:55.131Z,30.58
2018-02-13T19:54:22.773Z,32.53
2018-02-13T19:56:51.038Z,37.58
2018-02-13T19:59:19.314Z,29.80
2018-02-13T20:01:47.687Z,30.75
2018-02-13T20:04:15.951Z,32.28
2018-02-13T20:06:43.561Z,33.95
2018-02-13T20:09:11.206Z,31.37
2018-02-13T20:11:38.701Z,28.08
2018-02-13T20:14:06.194Z,28.55
2018-02-13T20:16:33.715Z,36.17
2018-02-13T20:19:01.250Z,32.10
2018-02-13T20:21:28.774Z,36.08
2018-02-13T20:23:56.289Z,31.60
2018-02-13T20:26:23.797Z,31.10
2018-02-13T20:28:52.092Z,29.73
2018-02-13T20:31:19.586Z,35.30
2018-02-13T20:33:47.111Z,38.25
2018-02-13T20:36:14.647Z,41.13
2018-02-13T20:38:42.910Z,39.50
2018-02-13T20:41:10.402Z,46.05
2018-02-13T20:43:37.911Z,48.85
2018-02-13T20:46:05.415Z,44.78
2018-02-13T20:48:33.678Z,53.03
2018-02-13T20:51:01.947Z,46.15
2018-02-13T20:53:29.440Z,51.33
2018-02-13T20:55:56.933Z,49.90
2018-02-13T20:58:24.442Z,56.65
2018-02-13T21:00:52.727Z,48.47
2018-02-13T21:03:20.223Z,40.92
2018-02-13T21:05:47.930Z,37.38
2018-02-13T21:08:16.406Z,37.97
2018-02-13T21:10:44.667Z,33.53
2018-02-13T21:13:12.163Z,34.65
2018-02-13T21:15:39.670Z,29.98
2018-02-13T21:18:07.179Z,29.55
2018-02-13T21:20:34.679Z,31.33
2018-02-13T21:23:02.178Z,26.92
2018-02-13T21:25:30.484Z,32.60
2018-02-13T21:27:57.986Z,32.13
2018-02-13T21:30:25.597Z,33.15
2018-02-13T21:32:53.098Z,29.50
2018-02-13T21:35:20.610Z,33.70
2018-02-13T21:37:48.214Z,32.50
2018-02-13T21:40:15.710Z,32.10
2018-02-13T21:42:43.973Z,29.67
2018-02-13T21:45:11.475Z,36.38
2018-02-13T21:47:38.978Z,32.13
2018-02-13T21:50:06.475Z,34.17
2018-02-13T21:52:33.966Z,35.03
2018-02-13T21:55:01.474Z,33.72
2018-02-13T21:57:29.734Z,30.92
2018-02-13T21:59:57.994Z,36.13
2018-02-13T22:02:25.502Z,35.38
2018-02-13T22:04:52.998Z,29.15
2018-02-13T22:07:20.507Z,30.65
2018-02-13T22:09:48.771Z,31.08
2018-02-13T22:12:17.263Z,31.40
2018-02-13T22:14:45.522Z,34.78
2018-02-13T22:17:13.126Z,29.17
2018-02-13T22:19:40.618Z,34.22
2018-02-13T22:22:08.134Z,29.60
2018-02-13T22:24:35.643Z,33.90
2018-02-13T22:27:03.179Z,31.33
2018-02-13T22:29:30.674Z,31.80
2018-02-13T22:31:58.188Z,36.15
2018-02-13T22:34:25.687Z,32.17
2018-02-13T22:36:53.956Z,33.35
2018-02-13T22:39:21.646Z,33.25
2018-02-13T22:41:49.917Z,33.35
2018-02-13T22:44:18.182Z,34.75
2018-02-13T22:46:45.870Z,35.33
2018-02-13T22:49:13.367Z,66.60
2018-02-13T22:51:40.882Z,36.75
2018-02-13T22:54:09.149Z,40.65
2018-02-13T22:56:37.409Z,33.03
2018-02-13T22:59:05.027Z,35.30
2018-02-13T23:01:32.514Z,35.33
2018-02-13T23:04:00.028Z,38.45
2018-02-13T23:06:27.526Z,40.75
2018-02-13T23:08:55.029Z,39.25
2018-02-13T23:11:23.516Z,38.70
2018-02-13T23:13:51.332Z,42.70
2018-02-13T23:16:18.831Z,37.60
2018-02-13T23:18:47.086Z,37.75
2018-02-13T23:21:14.577Z,38.08
2018-02-13T23:23:42.070Z,35.53
2018-02-13T23:26:09.581Z,38.72
2018-02-13T23:28:37.839Z,37.50
2018-02-13T23:31:05.342Z,36.85
2018-02-13T23:33:32.846Z,43.03
2018-02-13T23:36:00.343Z,39.28
2018-02-13T23:38:27.862Z,39.30
2018-02-13T23:40:55.368Z,40.00
2018-02-13T23:43:22.877Z,34.50
2018-02-13T23:45:50.385Z,45.22
2018-02-13T23:48:18.026Z,37.78
2018-02-13T23:50:46.278Z,41.00
2018-02-13T23:53:13.962Z,40.45
2018-02-13T23:55:42.218Z,42.62
2018-02-13T23:58:09.714Z,40.30
